Map

Track Data

SID SEASON NUMBER BASIN SUBBASIN NAME ISO_TIME NATURE LAT LON WMO_WIND WMO_PRES WMO_AGENCY TRACK_TYPE DIST2LAND LANDFALL IFLAG USA_AGENCY USA_ATCF_ID USA_LAT USA_LON USA_RECORD USA_STATUS USA_WIND USA_PRES USA_SSHS USA_R34_NE USA_R34_SE USA_R34_SW USA_R34_NW USA_R50_NE USA_R50_SE USA_R50_SW USA_R50_NW USA_R64_NE USA_R64_SE USA_R64_SW USA_R64_NW USA_POCI USA_ROCI USA_RMW USA_EYE TOKYO_LAT TOKYO_LON TOKYO_GRADE TOKYO_WIND TOKYO_PRES TOKYO_R50_DIR TOKYO_R50_LONG TOKYO_R50_SHORT TOKYO_R30_DIR TOKYO_R30_LONG TOKYO_R30_SHORT TOKYO_LAND CMA_LAT CMA_LON CMA_CAT CMA_WIND CMA_PRES HKO_LAT HKO_LON HKO_CAT HKO_WIND HKO_PRES NEWDELHI_LAT NEWDELHI_LON NEWDELHI_GRADE NEWDELHI_WIND NEWDELHI_PRES NEWDELHI_CI NEWDELHI_DP NEWDELHI_POCI REUNION_LAT REUNION_LON REUNION_TYPE REUNION_WIND REUNION_PRES REUNION_TNUM REUNION_CI REUNION_RMW REUNION_R34_NE REUNION_R34_SE REUNION_R34_SW REUNION_R34_NW REUNION_R50_NE REUNION_R50_SE REUNION_R50_SW REUNION_R50_NW REUNION_R64_NE REUNION_R64_SE REUNION_R64_SW REUNION_R64_NW BOM_LAT BOM_LON BOM_TYPE BOM_WIND BOM_PRES BOM_TNUM BOM_CI BOM_RMW BOM_R34_NE BOM_R34_SE BOM_R34_SW BOM_R34_NW BOM_R50_NE BOM_R50_SE BOM_R50_SW BOM_R50_NW BOM_R64_NE BOM_R64_SE BOM_R64_SW BOM_R64_NW BOM_ROCI BOM_POCI BOM_EYE BOM_POS_METHOD BOM_PRES_METHOD NADI_LAT NADI_LON NADI_CAT NADI_WIND NADI_PRES WELLINGTON_LAT WELLINGTON_LON WELLINGTON_WIND WELLINGTON_PRES DS824_LAT DS824_LON DS824_STAGE DS824_WIND DS824_PRES TD9636_LAT TD9636_LON TD9636_STAGE TD9636_WIND TD9636_PRES TD9635_LAT TD9635_LON TD9635_WIND TD9635_PRES TD9635_ROCI NEUMANN_LAT NEUMANN_LON NEUMANN_CLASS NEUMANN_WIND NEUMANN_PRES MLC_LAT MLC_LON MLC_CLASS MLC_WIND MLC_PRES USA_GUST BOM_GUST BOM_GUST_PER REUNION_GUST REUNION_GUST_PER USA_SEAHGT USA_SEARAD_NE USA_SEARAD_SE USA_SEARAD_SW USA_SEARAD_NW STORM_SPEED STORM_DIR
1950033S10068 1950 9 SI MM NOT_NAMED 1950-02-02 06:00:00 TS -9.60000 67.9000 main 1606 1547 O________OO___ jtwc_sh SH101950 -9.60000 67.9000 -1 -9.60000 67.9000 TC 25 -9.60000 67.9000 7 14 262
1950033S10068 1950 9 SI MM NOT_NAMED 1950-02-02 09:00:00 TS -9.69717 67.2025 main 1547 1490 P________PP___ SH101950 -9.68274 67.2100 -1 -9.68274 67.2100 TC 25 -9.72601 67.1876 7 14 261
1950033S10068 1950 9 SI MM NOT_NAMED 1950-02-02 12:00:00 TS -9.82036 66.4900 main 1490 1425 O________OP___ jtwc_sh SH101950 -9.80000 66.5000 -1 -9.80000 66.5000 TC 25 -9.86107 66.4700 7 15 258
1950033S10068 1950 9 SI MM NOT_NAMED 1950-02-02 15:00:00 TS -9.99012 65.7524 main 1425 1356 P________PP___ SH101950 -9.97738 65.7575 -1 -9.97738 65.7575 TC 30 -10.0156 65.7425 7 15 255
1950033S10068 1950 9 SI MM NOT_NAMED 1950-02-02 18:00:00 TS -10.2000 65.0000 main 1356 1295 O________OO___ jtwc_sh SH101950 -10.2000 65.0000 -1 -10.2000 65.0000 TC 35 -10.2000 65.0000 2 15 253
1950033S10068 1950 9 SI MM NOT_NAMED 1950-02-02 21:00:00 TS -10.4351 64.2514 main 1295 1221 P________PP___ SH101950 -10.4423 64.2574 -1 -10.4423 64.2574 TC 35 -10.4209 64.2394 2 16 252
1950033S10068 1950 9 SI MM NOT_NAMED 1950-02-03 00:00:00 TS -10.6898 63.4883 main 1221 1160 O________OP___ jtwc_sh SH101950 -10.7000 63.5000 -1 -10.7000 63.5000 TC 35 -10.6695 63.4649 2 16 252
1950033S10068 1950 9 SI MM NOT_NAMED 1950-02-03 03:00:00 TS -10.9444 62.6943 main 1160 1067 P________PP___ SH101950 -10.9499 62.6999 -1 -10.9499 62.6999 TC 35 -10.9333 62.6830 2 18 248
1950033S10068 1950 9 SI MM NOT_NAMED 1950-02-03 06:00:00 TS -11.3846 61.7538 reunion main 1067 1004 O____O___OO___ jtwc_sh SH101950 -11.2000 61.9000 -1 -13.6000 60.0000 99 9.90000 -11.2000 61.9000 TC 35 -11.2000 61.9000 2 19 244
1950033S10068 1950 9 SI MM NOT_NAMED 1950-02-03 09:00:00 TS -11.7612 60.9916 main 993 940 P____P___PP___ SH101950 -11.4497 61.1498 -1 -13.6226 60.1088 99 -11.4497 61.1498 TC 35 -11.4536 61.1167 2 16 243
1950033S10068 1950 9 SI MM NOT_NAMED 1950-02-03 12:00:00 TS -12.0911 60.3417 main 937 890 O____P___OP___ jtwc_sh SH101950 -11.7000 60.4000 -1 -13.6465 60.1953 99 -11.7000 60.4000 TC 35 -11.7069 60.3347 2 14 243
1950033S10068 1950 9 SI MM NOT_NAMED 1950-02-03 15:00:00 TS -12.3825 59.7494 main 887 854 P____P___PP___ SH101950 -11.9499 59.5999 -1 -13.6734 60.2373 99 -11.9499 59.5999 TC 35 -11.9567 59.5604 2 13 247
1950033S10068 1950 9 SI MM NOT_NAMED 1950-02-03 18:00:00 TS -12.5762 59.1532 main 854 822 O____P___OO___ jtwc_sh SH101950 -12.2000 58.8000 -1 -13.7046 60.2126 99 -12.2000 58.8000 TC 35 -12.2000 58.8000 2 12 251
1950033S10068 1950 9 SI MM NOT_NAMED 1950-02-03 21:00:00 TS -12.7740 58.5533 main 822 795 P____P___PP___ SH101950 -12.4573 58.0349 -1 -13.7417 60.0990 99 -12.4573 58.0349 TC 35 -12.4398 58.0442 2 12 252
1950033S10068 1950 9 SI MM NOT_NAMED 1950-02-04 00:00:00 TS -12.9645 57.9447 main 794 780 O____P___OP___ jtwc_sh SH101950 -12.7000 57.3000 -1 -13.7859 59.8740 99 -12.7000 57.3000 TC 35 -12.6719 57.3048 2 13 253
1950033S10068 1950 9 SI MM NOT_NAMED 1950-02-04 03:00:00 TS -13.1365 57.3182 main 770 701 P____P___PP___ SH101950 -12.9073 56.5848 -1 -13.8384 59.5152 99 -12.9073 56.5848 TC 35 -12.8930 56.5880 2 13 255
1950033S10068 1950 9 SI MM NOT_NAMED 1950-02-04 06:00:00 TS -13.3000 56.6750 reunion main 701 622 O____O___OO___ jtwc_sh SH101950 -13.1000 55.9000 -1 -13.9000 59.0000 99 9.90000 -13.1000 55.9000 TC 35 -13.1000 55.9000 2 13 255
1950033S10068 1950 9 SI MM NOT_NAMED 1950-02-04 09:00:00 TS -13.4694 56.0116 main 622 557 P____P___PP___ SH101950 -13.3073 55.2350 -1 -13.9707 58.3146 99 -13.3073 55.2350 TC 35 -13.2923 55.2620 2 13 256
1950033S10068 1950 9 SI MM NOT_NAMED 1950-02-04 12:00:00 TS -13.6300 55.3328 main 547 478 O____P___OP___ jtwc_sh SH101950 -13.5000 54.6000 -1 -14.0489 57.4819 99 -13.5000 54.6000 TC 35 -13.4709 54.6493 2 14 257
1950033S10068 1950 9 SI MM NOT_NAMED 1950-02-04 15:00:00 TS -13.7716 54.6464 main 468 403 P____P___PP___ SH101950 -13.6572 54.0073 -1 -14.1328 56.5340 99 -13.6572 54.0073 TC 35 -13.6392 54.0370 2 14 259
1950033S10068 1950 9 SI MM NOT_NAMED 1950-02-04 18:00:00 TS -13.9052 53.9258 main 393 320 O____P___OO___ jtwc_sh SH101950 -13.8000 53.4000 -1 -14.2209 55.5032 99 -13.8000 53.4000 TC 35 -13.8000 53.4000 2 15 259
1950033S10068 1950 9 SI MM NOT_NAMED 1950-02-04 21:00:00 TS -14.0453 53.1386 main 310 233 P____P___PP___ SH101950 -13.9499 52.7224 -1 -14.3119 54.4219 99 -13.9499 52.7224 TC 35 -13.9695 52.6876 2 16 260
1950033S10068 1950 9 SI MM NOT_NAMED 1950-02-05 00:00:00 TS -14.1839 52.3182 main 223 144 O____P___OP___ jtwc_sh SH101950 -14.1000 52.0000 -1 -14.4053 53.3228 99 -14.1000 52.0000 TC 35 -14.1302 51.9501 2 16 260
1950033S10068 1950 9 SI MM NOT_NAMED 1950-02-05 03:00:00 TS -14.3230 51.4839 main 144 58 P____P___PP___ SH101950 -14.2575 51.2425 -1 -14.5012 52.2381 99 -14.2575 51.2425 TC 35 -14.2757 51.2126 2 16 261
1950033S10068 1950 9 SI MM NOT_NAMED 1950-02-05 06:00:00 TS -14.4500 50.6750 reunion main 58 0 O____O___OO___ jtwc_sh SH101950 -14.4000 50.5000 -1 -14.6000 51.2000 99 9.90000 -14.4000 50.5000 TC 35 -14.4000 50.5000 2 15 261
1950033S10068 1950 9 SI MM NOT_NAMED 1950-02-05 09:00:00 TS -14.5585 49.9525 main 0 0 P____P___PP___ SH101950 -14.5147 49.8274 -1 -14.7051 50.2888 99 -14.5147 49.8274 TC 35 -14.4993 49.8661 2 14 262
1950033S10068 1950 9 SI MM NOT_NAMED 1950-02-05 12:00:00 TS -14.6485 49.2645 main 0 0 O____P___OP___ jtwc_sh SH101950 -14.6000 49.2000 -1 -14.8159 49.4011 99 -14.6000 49.2000 TC 35 -14.5782 49.2569 2 13 263
1950033S10068 1950 9 SI MM NOT_NAMED 1950-02-05 15:00:00 TS -14.7220 48.6037 main 0 0 P____P___PP___ SH101950 -14.6571 48.6149 -1 -14.9307 48.5406 99 -14.6571 48.6149 TC 35 -14.6430 48.6443 2 13 264
1950033S10068 1950 9 SI MM NOT_NAMED 1950-02-05 18:00:00 TS -14.7869 47.9279 main 0 0 O____P___OO___ jtwc_sh SH101950 -14.7000 48.0000 -1 -15.0475 47.7118 99 -14.7000 48.0000 TC 35 -14.7000 48.0000 2 14 265
1950033S10068 1950 9 SI MM NOT_NAMED 1950-02-05 21:00:00 TS -14.8524 47.1812 main 10 10 P____P___PP___ SH101950 -14.7500 47.2725 -1 -15.1645 46.9188 99 -14.7500 47.2725 TC 35 -14.7453 47.2612 2 15 265
1950033S10068 1950 9 SI MM NOT_NAMED 1950-02-06 00:00:00 TS -14.9164 46.4145 main 59 59 O____P___OP___ jtwc_sh SH101950 -14.8000 46.5000 -1 -15.2801 46.1661 99 -14.8000 46.5000 TC 35 -14.7855 46.4919 2 15 265
1950033S10068 1950 9 SI MM NOT_NAMED 1950-02-06 03:00:00 TS -14.9776 45.6600 main 95 95 P____P___PP___ SH101950 -14.8425 45.7274 -1 -15.3925 45.4583 99 -14.8425 45.7274 TC 35 -14.8329 45.7267 2 14 265
1950033S10068 1950 9 SI MM NOT_NAMED 1950-02-06 06:00:00 TS -15.0500 44.9500 reunion main 112 102 O____O___OO___ jtwc_sh SH101950 -14.9000 45.0000 -1 -15.5000 44.8000 99 9.90000 -14.9000 45.0000 TC 35 -14.9000 45.0000 2 13 263
1950033S10068 1950 9 SI MM NOT_NAMED 1950-02-06 09:00:00 TS -15.1319 44.3230 main 132 124 P____P___PP___ SH101950 -14.9847 44.3774 -1 -15.5802 44.1766 99 -14.9847 44.3774 TC 35 -14.9779 44.3605 2 12 261
1950033S10068 1950 9 SI MM NOT_NAMED 1950-02-06 12:00:00 TS -15.2342 43.7414 main 144 140 O____P___OP___ jtwc_sh SH101950 -15.1000 43.8000 -1 -15.6557 43.6038 99 -15.1000 43.8000 TC 35 -15.0810 43.7617 2 11 259
1950033S10068 1950 9 SI MM NOT_NAMED 1950-02-06 15:00:00 TS -15.3508 43.1644 main 163 163 P____P___PP___ SH101950 -15.2273 43.1998 -1 -15.7299 43.0756 99 -15.2273 43.1998 TC 35 -15.2186 43.1821 2 11 256
1950033S10068 1950 9 SI MM NOT_NAMED 1950-02-06 18:00:00 TS -15.5016 42.5966 main 201 159 O____P___OO___ jtwc_sh SH101950 -15.4000 42.6000 -1 -15.8063 42.5863 99 -15.4000 42.6000 TC 35 -15.4000 42.6000 2 11 253
1950033S10068 1950 9 SI MM NOT_NAMED 1950-02-06 21:00:00 TS -15.6933 42.0357 main 150 111 P____P___PP___ SH101950 -15.6273 42.0074 -1 -15.8883 42.1299 99 -15.6273 42.0074 TC 30 -15.6303 41.9980 2 12 248
1950033S10068 1950 9 SI MM NOT_NAMED 1950-02-07 00:00:00 TS -15.9242 41.4872 main 111 78 O____P___OP___ jtwc_sh SH101950 -15.9000 41.4000 -1 -15.9791 41.7006 99 -15.9000 41.4000 TC 25 -15.8995 41.3770 2 11 246
1950033S10068 1950 9 SI MM NOT_NAMED 1950-02-07 03:00:00 TS -16.1497 40.9697 main 78 61 P____P___PP___ SH101950 -16.1955 40.7604 -1 -16.0819 41.2926 99 -16.1955 40.7604 TC 25 -16.1940 40.7424 2 10 246
1950033S10068 1950 9 SI MM NOT_NAMED 1950-02-07 06:00:00 TS -16.3286 40.5571 reunion main 61 54 O____O___OO___ jtwc_sh SH101950 -16.5000 40.1000 -1 -16.2000 40.9000 99 9.90000 -16.5000 40.1000 TC 25 -16.5000 40.1000 1 5 249
1950033S10068 1950 9 SI MM NOT_NAMED 1950-02-07 09:00:00 NR -16.3340 40.4720 main 54 30 _____P________ SH101950 -1 -16.3340 40.4720 99 TC 1 5 252
1950033S10068 1950 9 SI MM NOT_NAMED 1950-02-07 12:00:00 NR -16.4822 40.0628 main 31 10 _____P________ -1 -16.4822 40.0628 99 1 8 248
1950033S10068 1950 9 SI MM NOT_NAMED 1950-02-07 15:00:00 NR -16.6433 39.6722 main 10 0 _____P________ -1 -16.6433 39.6722 99 1 8 245
1950033S10068 1950 9 SI MM NOT_NAMED 1950-02-07 18:00:00 NR -16.8161 39.3003 main 0 0 _____P________ -1 -16.8161 39.3003 99 8 243
1950033S10068 1950 9 SI MM NOT_NAMED 1950-02-07 21:00:00 NR -16.9994 38.9471 main 0 0 _____P________ -1 -16.9994 38.9471 99 8 240
1950033S10068 1950 9 SI MM NOT_NAMED 1950-02-08 00:00:00 NR -17.1920 38.6126 main 11 11 _____P________ -1 -17.1920 38.6126 99 7 238
1950033S10068 1950 9 SI MM NOT_NAMED 1950-02-08 03:00:00 NR -17.3926 38.2969 main 22 15 _____P________ -1 -17.3926 38.2969 99 7 235
1950033S10068 1950 9 SI MM NOT_NAMED 1950-02-08 06:00:00 NR -17.6000 38.0000 reunion main 30 24 _____O________ -1 -17.6000 38.0000 99 9.90000 7 233
1950033S10068 1950 9 SI MM NOT_NAMED 1950-02-08 09:00:00 NR -17.8130 37.7217 main 35 35 _____P________ -1 -17.8130 37.7217 99 7 230
1950033S10068 1950 9 SI MM NOT_NAMED 1950-02-08 12:00:00 NR -18.0308 37.4599 main 45 23 _____P________ -1 -18.0308 37.4599 99 7 228
1950033S10068 1950 9 SI MM NOT_NAMED 1950-02-08 15:00:00 NR -18.2528 37.2122 main 30 23 _____P________ -1 -18.2528 37.2122 99 6 226
1950033S10068 1950 9 SI MM NOT_NAMED 1950-02-08 18:00:00 NR -18.4782 36.9762 main 35 30 _____P________ -1 -18.4782 36.9762 99 6 224
1950033S10068 1950 9 SI MM NOT_NAMED 1950-02-08 21:00:00 NR -18.7064 36.7495 main 23 21 _____P________ -1 -18.7064 36.7495 99 6 223
1950033S10068 1950 9 SI MM NOT_NAMED 1950-02-09 00:00:00 NR -18.9366 36.5295 main 21 15 _____P________ -1 -18.9366 36.5295 99 6 222
1950033S10068 1950 9 SI MM NOT_NAMED 1950-02-09 03:00:00 NR -19.1680 36.3138 main 33 33 _____P________ -1 -19.1680 36.3138 99 6 221
1950033S10068 1950 9 SI MM NOT_NAMED 1950-02-09 06:00:00 NR -19.4000 36.1000 reunion main 49 _____O________ -1 -19.4000 36.1000 99 9.90000 6 221

About IBTrACS Database

This database is a web-friendly format of International Best Track Archive for Climate Stewardship (IBTrACS), a global best track data archive curated by NOAA dating back to 1842.

Updated: 2021-11-26